createdAt,value
2018-05-09T00:01:59.939Z,17.90
2018-05-09T00:04:26.830Z,17.80
2018-05-09T00:06:53.031Z,18.00
2018-05-09T00:09:19.904Z,17.70
2018-05-09T00:11:49.497Z,17.70
2018-05-09T00:14:16.371Z,17.60
2018-05-09T00:16:43.242Z,17.60
2018-05-09T00:19:10.306Z,17.60
2018-05-09T00:21:36.418Z,17.60
2018-05-09T00:24:03.316Z,17.60
2018-05-09T00:26:29.459Z,17.60
2018-05-09T00:28:55.589Z,17.50
2018-05-09T00:31:21.710Z,17.80
2018-05-09T00:33:47.826Z,17.50
2018-05-09T00:36:14.690Z,17.50
2018-05-09T00:38:41.571Z,17.40
2018-05-09T00:41:07.734Z,17.40
2018-05-09T00:43:33.854Z,17.40
2018-05-09T00:46:00.779Z,17.30
2018-05-09T00:48:26.894Z,17.30
2018-05-09T00:50:53.155Z,17.60
2018-05-09T00:53:19.284Z,17.30
2018-05-09T00:55:45.520Z,17.60
2018-05-09T00:58:11.983Z,17.20
2018-05-09T01:00:38.079Z,17.50
2018-05-09T01:03:04.934Z,17.20
2018-05-09T01:05:31.043Z,17.20
2018-05-09T01:07:57.151Z,17.30
2018-05-09T01:10:23.261Z,17.20
2018-05-09T01:12:49.362Z,17.20
2018-05-09T01:15:15.472Z,17.20
2018-05-09T01:17:41.592Z,17.50
2018-05-09T01:20:07.699Z,17.40
2018-05-09T01:22:34.539Z,17.20
2018-05-09T01:25:00.641Z,17.20
2018-05-09T01:27:26.794Z,17.40
2018-05-09T01:29:52.943Z,17.20
2018-05-09T01:32:19.038Z,17.20
2018-05-09T01:34:45.145Z,17.10
2018-05-09T01:37:11.262Z,17.40
2018-05-09T01:39:37.362Z,17.00
2018-05-09T01:42:03.451Z,17.00
2018-05-09T01:44:29.759Z,17.00
2018-05-09T01:46:55.851Z,16.80
2018-05-09T01:49:22.680Z,17.00
2018-05-09T01:51:48.784Z,17.10
2018-05-09T01:54:14.889Z,17.00
2018-05-09T01:56:41.724Z,16.90
2018-05-09T01:59:07.821Z,17.20
2018-05-09T02:01:33.921Z,16.90
2018-05-09T02:04:00.780Z,16.80
2018-05-09T02:06:28.690Z,16.80
2018-05-09T02:08:54.828Z,16.70
2018-05-09T02:11:20.890Z,16.80
2018-05-09T02:13:46.986Z,16.70
2018-05-09T02:16:13.071Z,17.00
2018-05-09T02:18:39.161Z,16.70
2018-05-09T02:21:06.023Z,16.60
2018-05-09T02:23:32.103Z,16.60
2018-05-09T02:25:58.339Z,16.60
2018-05-09T02:28:24.435Z,16.60
2018-05-09T02:30:50.571Z,16.80
2018-05-09T02:33:16.690Z,16.60
2018-05-09T02:35:42.811Z,16.50
2018-05-09T02:38:08.936Z,16.50
2018-05-09T02:40:35.040Z,16.50
2018-05-09T02:43:01.892Z,16.50
2018-05-09T02:45:28.744Z,16.40
2018-05-09T02:47:55.616Z,16.40
2018-05-09T02:50:22.462Z,16.40
2018-05-09T02:52:48.813Z,16.40
2018-05-09T02:55:15.666Z,16.40
2018-05-09T02:57:42.505Z,16.30
2018-05-09T03:00:08.639Z,16.30
2018-05-09T03:02:34.806Z,16.30
2018-05-09T03:05:01.663Z,16.30
2018-05-09T03:07:28.502Z,16.30
2018-05-09T03:09:54.582Z,16.20
2018-05-09T03:12:20.687Z,16.20
2018-05-09T03:14:47.551Z,16.20
2018-05-09T03:17:14.371Z,16.10
2018-05-09T03:19:40.470Z,16.10
2018-05-09T03:22:06.624Z,16.10
2018-05-09T03:24:32.727Z,16.30
2018-05-09T03:26:59.582Z,16.00
2018-05-09T03:29:30.226Z,16.00
2018-05-09T03:31:57.072Z,16.00
2018-05-09T03:34:23.183Z,16.60
2018-05-09T03:36:49.529Z,16.10
2018-05-09T03:39:15.643Z,15.90
2018-05-09T03:41:41.774Z,16.00
2018-05-09T03:44:08.254Z,16.30
2018-05-09T03:46:34.384Z,16.00
2018-05-09T03:49:00.527Z,15.90
2018-05-09T03:51:26.700Z,15.90
2018-05-09T03:53:53.571Z,15.80
2018-05-09T03:56:20.414Z,15.80
2018-05-09T03:58:46.528Z,16.10
2018-05-09T04:01:12.623Z,16.00
2018-05-09T04:03:52.168Z,15.80
2018-05-09T04:06:31.197Z,15.80
2018-05-09T04:09:11.099Z,15.80
2018-05-09T04:11:37.217Z,15.70
2018-05-09T04:14:04.078Z,15.70
2018-05-09T04:16:30.914Z,15.80
2018-05-09T04:18:57.015Z,16.00
2018-05-09T04:21:23.148Z,15.70
2018-05-09T04:23:49.260Z,15.70
2018-05-09T04:26:15.375Z,15.80
2018-05-09T04:28:41.468Z,15.50
2018-05-09T04:31:07.582Z,15.80
2018-05-09T04:33:33.680Z,15.80
2018-05-09T04:35:59.790Z,15.80
2018-05-09T04:38:25.889Z,15.80
2018-05-09T04:40:51.984Z,15.80
2018-05-09T04:43:18.079Z,15.80
2018-05-09T04:45:44.623Z,15.80
2018-05-09T04:48:10.768Z,15.80
2018-05-09T04:50:36.881Z,15.80
2018-05-09T04:53:02.991Z,15.80
2018-05-09T04:55:29.204Z,15.80
2018-05-09T04:57:55.918Z,15.90
2018-05-09T05:00:22.015Z,15.90
2018-05-09T05:02:48.098Z,15.90
2018-05-09T05:05:14.270Z,16.00
2018-05-09T05:07:43.041Z,15.90
2018-05-09T05:10:09.421Z,15.90
2018-05-09T05:12:35.610Z,15.90
2018-05-09T05:15:01.686Z,15.60
2018-05-09T05:17:27.804Z,16.00
2018-05-09T05:19:53.949Z,16.30
2018-05-09T05:22:20.797Z,16.20
2018-05-09T05:24:47.663Z,16.10
2018-05-09T05:27:14.515Z,16.30
2018-05-09T05:29:40.638Z,16.40
2018-05-09T05:32:07.078Z,16.30
2018-05-09T05:34:33.177Z,16.40
2018-05-09T05:36:59.303Z,16.50
2018-05-09T05:39:25.408Z,16.60
2018-05-09T05:41:51.515Z,16.50
2018-05-09T05:44:17.676Z,16.90
2018-05-09T05:46:44.007Z,17.00
2018-05-09T05:49:10.131Z,17.40
2018-05-09T05:51:36.235Z,17.30
2018-05-09T05:54:03.098Z,17.50
2018-05-09T05:56:29.225Z,17.50
2018-05-09T05:58:56.086Z,17.90
2018-05-09T06:01:22.251Z,17.90
2018-05-09T06:03:49.066Z,18.20
2018-05-09T06:06:15.181Z,18.20
2018-05-09T06:08:41.417Z,18.50
2018-05-09T06:11:07.534Z,18.50
2018-05-09T06:13:33.651Z,19.00
2018-05-09T06:15:59.784Z,18.90
2018-05-09T06:18:26.636Z,19.20
2018-05-09T06:20:52.749Z,19.20
2018-05-09T06:23:18.932Z,19.40
2018-05-09T06:25:45.022Z,19.60
2018-05-09T06:28:11.121Z,19.90
2018-05-09T06:30:37.971Z,20.30
2018-05-09T06:33:04.823Z,20.60
2018-05-09T06:35:30.931Z,20.80
2018-05-09T06:37:57.051Z,20.80
2018-05-09T06:40:23.150Z,21.20
2018-05-09T06:42:50.007Z,21.40
2018-05-09T06:45:16.848Z,21.50
2018-05-09T06:47:44.023Z,21.60
2018-05-09T06:50:10.867Z,21.70
2018-05-09T06:52:37.095Z,21.70
2018-05-09T06:55:03.225Z,22.00
2018-05-09T06:57:29.324Z,22.00
2018-05-09T06:59:56.309Z,22.20
2018-05-09T07:02:22.311Z,22.10
2018-05-09T07:04:48.402Z,22.20
2018-05-09T07:07:14.529Z,22.50
2018-05-09T07:09:40.631Z,23.00
2018-05-09T07:12:06.738Z,23.00
2018-05-09T07:14:32.823Z,23.10
2018-05-09T07:16:58.913Z,23.30
2018-05-09T07:19:25.015Z,23.50
2018-05-09T07:21:51.136Z,23.80
2018-05-09T07:24:17.234Z,24.00
2018-05-09T07:26:44.817Z,24.60
2018-05-09T07:29:10.911Z,24.60
2018-05-09T07:31:37.016Z,25.10
2018-05-09T07:34:03.124Z,25.90
2018-05-09T07:36:29.212Z,26.90
2018-05-09T07:38:55.310Z,28.50
2018-05-09T07:41:21.438Z,30.20
2018-05-09T07:43:47.556Z,31.90
2018-05-09T07:46:14.389Z,35.40
2018-05-09T07:48:40.495Z,35.30
2018-05-09T07:51:06.620Z,37.00
2018-05-09T07:53:32.729Z,38.30
2018-05-09T07:55:59.566Z,40.20
2018-05-09T07:58:26.489Z,41.00
2018-05-09T08:00:52.611Z,40.90
2018-05-09T08:03:18.811Z,41.90
2018-05-09T08:05:56.419Z,42.50
2018-05-09T08:08:27.494Z,42.90
2018-05-09T08:10:54.359Z,43.10
2018-05-09T08:13:21.215Z,43.30
2018-05-09T08:15:51.205Z,43.20
2018-05-09T08:18:18.082Z,43.50
2018-05-09T08:20:44.525Z,43.40
2018-05-09T08:23:10.640Z,43.60
2018-05-09T08:25:37.480Z,41.60
2018-05-09T08:28:03.628Z,41.50
2018-05-09T08:30:29.855Z,39.50
2018-05-09T08:32:57.254Z,37.90
2018-05-09T08:35:23.366Z,36.40
2018-05-09T08:37:49.486Z,35.10
2018-05-09T08:40:16.331Z,33.10
2018-05-09T08:42:43.175Z,32.30
2018-05-09T08:45:09.276Z,32.20
2018-05-09T08:47:35.371Z,31.60
2018-05-09T08:50:01.474Z,30.90
2018-05-09T08:52:29.526Z,30.50
2018-05-09T08:54:56.395Z,29.70
2018-05-09T08:57:23.321Z,29.30
2018-05-09T08:59:49.411Z,29.30
2018-05-09T09:02:16.234Z,28.80
2018-05-09T09:04:42.355Z,28.70
2018-05-09T09:07:08.448Z,28.50
2018-05-09T09:09:38.564Z,28.40
2018-05-09T09:12:04.660Z,28.50
2018-05-09T09:14:30.752Z,28.40
2018-05-09T09:16:56.851Z,28.40
2018-05-09T09:19:22.951Z,28.30
2018-05-09T09:21:49.087Z,28.30
2018-05-09T09:24:15.207Z,28.20
2018-05-09T09:26:44.007Z,28.30
2018-05-09T09:29:10.126Z,28.30
2018-05-09T09:31:36.206Z,28.30
2018-05-09T09:34:03.049Z,28.40
2018-05-09T09:36:29.887Z,28.20
2018-05-09T09:38:55.983Z,28.20
2018-05-09T09:41:22.169Z,28.30
2018-05-09T09:43:51.511Z,28.30
2018-05-09T09:46:17.595Z,28.20
2018-05-09T09:48:43.761Z,28.40
2018-05-09T09:51:09.887Z,28.40
2018-05-09T09:53:36.066Z,28.40
2018-05-09T09:56:02.903Z,28.60
2018-05-09T09:58:28.997Z,28.60
2018-05-09T10:00:56.927Z,28.60
2018-05-09T10:03:25.339Z,28.90
2018-05-09T10:05:51.451Z,28.80
2018-05-09T10:08:17.560Z,29.00
2018-05-09T10:10:44.451Z,29.20
2018-05-09T10:13:10.556Z,29.20
2018-05-09T10:15:41.676Z,29.20
2018-05-09T10:18:07.767Z,29.30
2018-05-09T10:20:33.858Z,29.40
2018-05-09T10:22:59.947Z,29.50
2018-05-09T10:25:26.086Z,29.60
2018-05-09T10:27:52.183Z,29.60
2018-05-09T10:30:18.300Z,29.80
2018-05-09T10:32:45.256Z,29.70
2018-05-09T10:37:42.788Z,29.70
2018-05-09T10:40:09.648Z,29.80
2018-05-09T10:42:35.751Z,29.70
2018-05-09T10:45:01.851Z,29.80
2018-05-09T10:47:27.996Z,29.80
2018-05-09T10:49:54.066Z,29.80
2018-05-09T10:54:52.062Z,29.80
2018-05-09T10:57:18.179Z,29.80
2018-05-09T10:59:44.474Z,29.90
2018-05-09T11:02:10.622Z,29.90
2018-05-09T11:04:36.734Z,29.80
2018-05-09T11:07:02.830Z,29.80
2018-05-09T11:09:29.693Z,29.90
2018-05-09T11:11:57.686Z,30.10
2018-05-09T11:14:24.528Z,30.10
2018-05-09T11:16:51.370Z,30.30
2018-05-09T11:19:17.490Z,30.30
2018-05-09T11:21:43.620Z,30.40
2018-05-09T11:24:09.789Z,30.50
2018-05-09T11:26:35.935Z,30.50
2018-05-09T11:29:07.080Z,30.70
2018-05-09T11:31:33.238Z,30.70
2018-05-09T11:34:00.168Z,30.50
2018-05-09T11:36:26.253Z,30.50
2018-05-09T11:38:52.373Z,30.50
2018-05-09T11:41:18.484Z,30.40
2018-05-09T11:43:44.751Z,30.40
2018-05-09T11:46:10.883Z,30.40
2018-05-09T11:48:41.337Z,30.10
2018-05-09T11:51:07.455Z,30.30
2018-05-09T11:53:34.314Z,30.30
2018-05-09T11:56:00.447Z,30.30
2018-05-09T11:58:26.584Z,30.20
2018-05-09T12:00:52.746Z,30.20
2018-05-09T12:03:18.934Z,30.30
2018-05-09T12:05:50.471Z,30.20
2018-05-09T12:08:17.319Z,30.10
2018-05-09T12:10:43.690Z,30.00
2018-05-09T12:13:09.750Z,30.00
2018-05-09T12:15:35.858Z,30.10
2018-05-09T12:18:02.719Z,30.10
2018-05-09T12:20:29.646Z,29.80
2018-05-09T12:22:59.972Z,29.80
2018-05-09T12:25:26.189Z,29.60
2018-05-09T12:27:52.293Z,29.50
2018-05-09T12:30:18.404Z,29.40
2018-05-09T12:32:44.599Z,29.30
2018-05-09T12:35:10.740Z,29.30
2018-05-09T12:37:36.845Z,29.40
2018-05-09T12:40:10.711Z,29.30
2018-05-09T12:42:36.827Z,29.20
2018-05-09T12:45:03.672Z,29.20
2018-05-09T12:47:30.507Z,29.20
2018-05-09T12:49:56.615Z,29.10
2018-05-09T12:52:22.750Z,29.20
2018-05-09T12:54:52.723Z,29.20
2018-05-09T12:57:18.807Z,29.20
2018-05-09T12:59:44.939Z,29.40
2018-05-09T13:02:11.042Z,29.40
2018-05-09T13:04:37.146Z,29.50
2018-05-09T13:07:03.267Z,29.60
2018-05-09T13:09:29.451Z,29.70
2018-05-09T13:11:58.788Z,29.80
2018-05-09T13:14:24.917Z,29.80
2018-05-09T13:16:51.027Z,29.90
2018-05-09T13:19:17.146Z,29.90
2018-05-09T13:21:43.364Z,29.90
2018-05-09T13:24:09.563Z,30.00
2018-05-09T13:26:35.664Z,29.90
2018-05-09T13:29:04.668Z,29.80
2018-05-09T13:31:31.501Z,30.00
2018-05-09T13:33:57.640Z,30.00
2018-05-09T13:36:23.731Z,30.20
2018-05-09T13:38:49.870Z,30.40
2018-05-09T13:41:15.990Z,30.40
2018-05-09T13:43:42.261Z,30.50
2018-05-09T13:46:11.508Z,30.60
2018-05-09T13:48:38.241Z,30.40
2018-05-09T13:51:04.346Z,30.30
2018-05-09T13:53:30.451Z,30.30
2018-05-09T13:55:56.571Z,30.10
2018-05-09T13:58:22.656Z,30.00
2018-05-09T14:00:48.850Z,29.90
2018-05-09T14:03:17.659Z,29.80
2018-05-09T14:05:43.774Z,29.70
2018-05-09T14:08:09.864Z,29.70
2018-05-09T14:10:35.967Z,29.60
2018-05-09T14:13:02.063Z,29.60
2018-05-09T14:15:28.197Z,29.60
2018-05-09T14:17:54.987Z,29.80
2018-05-09T14:20:21.092Z,29.80
2018-05-09T14:22:50.863Z,29.80
2018-05-09T14:25:17.040Z,29.70
2018-05-09T14:27:43.186Z,29.70
2018-05-09T14:30:10.028Z,29.50
2018-05-09T14:32:36.252Z,29.50
2018-05-09T14:35:02.380Z,29.40
2018-05-09T14:37:29.212Z,29.50
2018-05-09T14:39:55.332Z,29.40
2018-05-09T14:42:21.454Z,29.40
2018-05-09T14:44:49.893Z,29.40
2018-05-09T14:47:16.003Z,29.30
2018-05-09T14:49:42.097Z,29.30
2018-05-09T14:52:08.400Z,29.30
2018-05-09T14:54:34.533Z,29.40
2018-05-09T14:57:00.597Z,29.40
2018-05-09T14:59:26.708Z,29.40
2018-05-09T15:01:52.821Z,29.30
2018-05-09T15:04:18.930Z,29.30
2018-05-09T15:06:45.844Z,29.50
2018-05-09T15:09:12.461Z,29.50
2018-05-09T15:11:38.859Z,29.50
2018-05-09T15:14:05.017Z,29.60
2018-05-09T15:16:31.098Z,29.60
2018-05-09T15:18:57.274Z,29.60
2018-05-09T15:21:24.158Z,29.60
2018-05-09T15:24:02.565Z,29.50
2018-05-09T15:26:30.851Z,29.60
2018-05-09T15:29:17.612Z,29.70
2018-05-09T15:32:13.751Z,29.70
2018-05-09T15:34:44.196Z,29.70
2018-05-09T15:37:10.556Z,29.60
2018-05-09T15:39:37.223Z,29.70
2018-05-09T15:42:04.005Z,29.60
2018-05-09T15:44:31.387Z,29.60
2018-05-09T15:46:57.681Z,29.60
2018-05-09T15:49:24.723Z,29.50
2018-05-09T15:51:51.777Z,29.60
2018-05-09T15:54:18.194Z,29.60
2018-05-09T15:56:44.675Z,29.60
2018-05-09T15:59:11.280Z,29.60
2018-05-09T16:01:37.596Z,29.60
2018-05-09T16:04:03.887Z,29.40
2018-05-09T16:06:30.362Z,29.30
2018-05-09T16:08:57.503Z,29.10
2018-05-09T16:11:24.556Z,29.00
2018-05-09T16:13:50.876Z,28.90
2018-05-09T16:16:17.203Z,28.80
2018-05-09T16:18:43.554Z,28.80
2018-05-09T16:21:09.872Z,28.80
2018-05-09T16:23:36.594Z,28.70
2018-05-09T16:26:02.881Z,28.70
2018-05-09T16:28:30.010Z,28.70
2018-05-09T16:30:56.319Z,28.70
2018-05-09T16:33:22.585Z,28.60
2018-05-09T16:35:49.005Z,28.60
2018-05-09T16:38:15.378Z,28.40
2018-05-09T16:40:41.685Z,28.50
2018-05-09T16:43:07.970Z,28.50
2018-05-09T16:45:34.338Z,28.40
2018-05-09T16:48:01.361Z,28.30
2018-05-09T16:50:27.639Z,28.30
2018-05-09T16:52:53.957Z,28.20
2018-05-09T16:55:20.247Z,28.20
2018-05-09T16:57:46.569Z,28.20
2018-05-09T17:00:12.867Z,28.20
2018-05-09T17:02:39.135Z,28.10
2018-05-09T17:05:05.468Z,28.20
2018-05-09T17:07:31.798Z,28.10
2018-05-09T17:09:58.098Z,28.00
2018-05-09T17:12:24.477Z,28.00
2018-05-09T17:14:50.988Z,27.90
2018-05-09T17:17:17.286Z,27.80
2018-05-09T17:19:43.811Z,27.70
2018-05-09T17:22:31.934Z,27.70
2018-05-09T17:24:58.222Z,27.70
2018-05-09T17:27:29.340Z,27.50
2018-05-09T17:29:55.690Z,27.50
2018-05-09T17:32:21.999Z,27.40
2018-05-09T17:34:49.024Z,27.30
2018-05-09T17:37:15.301Z,27.30
2018-05-09T17:39:42.323Z,27.20
2018-05-09T17:42:08.655Z,27.30
2018-05-09T17:44:34.927Z,27.30
2018-05-09T17:47:01.231Z,27.20
2018-05-09T17:49:27.529Z,27.10
2018-05-09T17:51:53.836Z,27.10
2018-05-09T17:54:20.103Z,27.10
2018-05-09T17:56:47.140Z,27.00
2018-05-09T17:59:13.447Z,27.40
2018-05-09T18:01:39.783Z,27.00
2018-05-09T18:04:06.137Z,26.90
2018-05-09T18:06:32.362Z,26.90
2018-05-09T18:08:58.650Z,26.90
2018-05-09T18:11:24.956Z,26.90
2018-05-09T18:13:51.340Z,26.80
2018-05-09T18:16:17.630Z,26.60
2018-05-09T18:18:44.033Z,26.70
2018-05-09T18:21:10.391Z,26.70
2018-05-09T18:23:50.283Z,26.50
2018-05-09T18:26:16.608Z,26.50
2018-05-09T18:28:43.713Z,26.40
2018-05-09T18:31:10.378Z,26.40
2018-05-09T18:33:36.763Z,26.70
2018-05-09T18:36:03.776Z,26.30
2018-05-09T18:38:51.032Z,26.30
2018-05-09T18:41:23.289Z,26.10
2018-05-09T18:43:49.621Z,26.10
2018-05-09T18:46:15.894Z,26.00
2018-05-09T18:48:42.202Z,25.90
2018-05-09T18:51:09.232Z,25.80
2018-05-09T18:53:35.534Z,25.70
2018-05-09T18:56:01.823Z,25.70
2018-05-09T18:58:28.131Z,25.60
2018-05-09T19:00:54.418Z,25.60
2018-05-09T19:03:21.521Z,25.40
2018-05-09T19:05:47.816Z,25.50
2018-05-09T19:08:14.906Z,25.30
2018-05-09T19:10:41.223Z,25.20
2018-05-09T19:13:07.518Z,25.40
2018-05-09T19:15:33.817Z,25.20
2018-05-09T19:18:00.149Z,25.10
2018-05-09T19:20:27.900Z,25.00
2018-05-09T19:22:54.236Z,25.00
2018-05-09T19:25:21.339Z,24.90
2018-05-09T19:27:47.677Z,24.90
2018-05-09T19:30:13.963Z,24.80
2018-05-09T19:32:41.016Z,24.80
2018-05-09T19:35:17.328Z,24.80
2018-05-09T19:37:47.532Z,24.70
2018-05-09T19:40:13.634Z,24.70
2018-05-09T19:42:39.876Z,24.60
2018-05-09T19:45:06.010Z,24.60
2018-05-09T19:47:32.867Z,24.60
2018-05-09T19:49:58.970Z,24.50
2018-05-09T19:52:25.906Z,24.50
2018-05-09T19:54:52.163Z,24.50
2018-05-09T19:57:19.152Z,24.40
2018-05-09T19:59:45.235Z,24.40
2018-05-09T20:02:11.359Z,24.40
2018-05-09T20:04:37.463Z,24.10
2018-05-09T20:07:03.587Z,24.30
2018-05-09T20:09:39.421Z,24.30
2018-05-09T20:12:12.745Z,24.30
2018-05-09T20:14:39.604Z,24.20
2018-05-09T20:17:06.446Z,24.10
2018-05-09T20:19:32.530Z,24.10
2018-05-09T20:21:58.617Z,24.10
2018-05-09T20:24:24.744Z,24.10
2018-05-09T20:26:50.840Z,24.00
2018-05-09T20:29:16.919Z,23.90
2018-05-09T20:31:55.450Z,23.90
2018-05-09T20:34:21.550Z,23.80
2018-05-09T20:36:47.621Z,24.00
2018-05-09T20:39:13.706Z,23.80
2018-05-09T20:41:50.331Z,23.60
2018-05-09T20:44:19.891Z,23.60
2018-05-09T20:46:47.707Z,23.50
2018-05-09T20:49:13.788Z,23.50
2018-05-09T20:51:49.986Z,23.50
2018-05-09T20:54:16.835Z,23.40
2018-05-09T20:56:43.665Z,23.40
2018-05-09T20:59:09.836Z,23.40
2018-05-09T21:01:46.804Z,23.40
2018-05-09T21:04:13.036Z,23.30
2018-05-09T21:06:39.135Z,23.30
2018-05-09T21:09:05.257Z,23.30
2018-05-09T21:11:32.076Z,23.30
2018-05-09T21:13:58.192Z,23.20
2018-05-09T21:16:24.337Z,23.10
2018-05-09T21:18:50.455Z,23.20
2018-05-09T21:21:16.628Z,23.20
2018-05-09T21:23:42.742Z,23.20
2018-05-09T21:26:08.866Z,23.10
2018-05-09T21:28:35.013Z,23.10
2018-05-09T21:31:01.158Z,23.10
2018-05-09T21:33:27.440Z,23.10
2018-05-09T21:35:54.338Z,23.00
2018-05-09T21:38:20.586Z,23.00
2018-05-09T21:40:46.811Z,23.00
2018-05-09T21:43:12.890Z,23.00
2018-05-09T21:45:39.098Z,22.90
2018-05-09T21:48:05.211Z,22.90
2018-05-09T21:50:31.379Z,22.90
2018-05-09T21:52:57.505Z,22.80
2018-05-09T21:55:23.657Z,22.80
2018-05-09T21:57:49.940Z,22.80
2018-05-09T22:00:16.844Z,22.70
2018-05-09T22:02:42.948Z,22.70
2018-05-09T22:05:09.821Z,22.60
2018-05-09T22:07:36.130Z,22.60
2018-05-09T22:10:02.215Z,22.60
2018-05-09T22:12:28.292Z,22.70
2018-05-09T22:14:54.463Z,22.80
2018-05-09T22:17:21.304Z,22.40
2018-05-09T22:19:47.470Z,22.60
2018-05-09T22:22:13.592Z,22.50
2018-05-09T22:24:40.429Z,22.40
2018-05-09T22:27:06.553Z,22.30
2018-05-09T22:29:32.634Z,22.30
2018-05-09T22:31:59.507Z,22.20
2018-05-09T22:34:25.619Z,22.20
2018-05-09T22:36:52.828Z,22.20
2018-05-09T22:39:19.165Z,22.10
2018-05-09T22:41:46.226Z,22.10
2018-05-09T22:44:12.323Z,22.10
2018-05-09T22:46:38.423Z,22.10
2018-05-09T22:49:04.511Z,22.10
2018-05-09T22:51:30.658Z,22.10
2018-05-09T22:53:56.999Z,22.00
2018-05-09T22:56:23.110Z,22.20
2018-05-09T22:58:49.962Z,22.00
2018-05-09T23:01:16.975Z,21.90
2018-05-09T23:03:43.073Z,21.90
2018-05-09T23:06:09.168Z,21.90
2018-05-09T23:08:35.421Z,21.80
2018-05-09T23:11:01.525Z,21.80
2018-05-09T23:13:27.635Z,21.70
2018-05-09T23:15:53.747Z,21.40
2018-05-09T23:18:19.835Z,21.60
2018-05-09T23:20:45.921Z,21.60
2018-05-09T23:23:12.018Z,21.50
2018-05-09T23:25:38.246Z,21.50
2018-05-09T23:28:04.376Z,21.50
2018-05-09T23:30:30.488Z,21.40
2018-05-09T23:32:56.596Z,21.30
2018-05-09T23:35:22.802Z,21.30
2018-05-09T23:37:49.564Z,21.20
2018-05-09T23:40:15.766Z,21.20
2018-05-09T23:42:42.587Z,21.00
2018-05-09T23:45:08.678Z,21.30
2018-05-09T23:47:34.782Z,21.10
2018-05-09T23:50:01.640Z,21.10
2018-05-09T23:52:27.758Z,21.10
2018-05-09T23:54:53.859Z,21.00
2018-05-09T23:57:19.947Z,21.00
2018-05-09T23:59:46.773Z,21.00
